sensor_id;sensor_type;location;lat;lon;timestamp;pressure;altitude;pressure_sealevel;temperature;humidity
6506;BME280;3286;49.858;8.768;2023-02-28T00:00:24;100236.28;;;0.94;46.33
6506;BME280;3286;49.858;8.768;2023-02-28T00:02:51;100239.69;;;1.17;45.86
6506;BME280;3286;49.858;8.768;2023-02-28T00:05:19;100236.69;;;1.05;46.36
6506;BME280;3286;49.858;8.768;2023-02-28T00:07:46;100247.34;;;0.77;46.64
6506;BME280;3286;49.858;8.768;2023-02-28T00:10:15;100239.25;;;0.84;46.94
6506;BME280;3286;49.858;8.768;2023-02-28T00:12:45;100237.41;;;0.43;48.17
6506;BME280;3286;49.858;8.768;2023-02-28T00:15:13;100241.75;;;0.65;47.41
6506;BME280;3286;49.858;8.768;2023-02-28T00:17:39;100240.31;;;1.01;46.89
6506;BME280;3286;49.858;8.768;2023-02-28T00:20:07;100243.03;;;0.55;47.76
6506;BME280;3286;49.858;8.768;2023-02-28T00:22:36;100241.56;;;0.70;47.50
6506;BME280;3286;49.858;8.768;2023-02-28T00:25:03;100244.59;;;0.59;47.37
6506;BME280;3286;49.858;8.768;2023-02-28T00:27:32;100239.88;;;0.69;47.17
6506;BME280;3286;49.858;8.768;2023-02-28T00:30:00;100240.13;;;0.85;46.74
6506;BME280;3286;49.858;8.768;2023-02-28T00:32:26;100240.13;;;0.85;46.92
6506;BME280;3286;49.858;8.768;2023-02-28T00:34:53;100238.03;;;0.93;46.25
6506;BME280;3286;49.858;8.768;2023-02-28T00:37:20;100245.19;;;0.88;46.49
6506;BME280;3286;49.858;8.768;2023-02-28T00:39:46;100246.56;;;0.75;46.96
6506;BME280;3286;49.858;8.768;2023-02-28T00:42:13;100246.41;;;0.57;47.18
6506;BME280;3286;49.858;8.768;2023-02-28T00:44:39;100250.09;;;0.74;46.92
6506;BME280;3286;49.858;8.768;2023-02-28T00:47:07;100246.22;;;0.39;47.58
6506;BME280;3286;49.858;8.768;2023-02-28T00:49:34;100250.53;;;0.63;47.04
6506;BME280;3286;49.858;8.768;2023-02-28T00:52:01;100249.25;;;0.73;46.77
6506;BME280;3286;49.858;8.768;2023-02-28T00:54:27;100248.50;;;0.69;46.82
6506;BME280;3286;49.858;8.768;2023-02-28T00:56:54;100245.44;;;0.60;47.20
6506;BME280;3286;49.858;8.768;2023-02-28T00:59:21;100248.50;;;0.47;47.44
6506;BME280;3286;49.858;8.768;2023-02-28T01:01:47;100239.63;;;0.31;47.57
6506;BME280;3286;49.858;8.768;2023-02-28T01:04:15;100246.97;;;0.19;48.22
6506;BME280;3286;49.858;8.768;2023-02-28T01:06:42;100252.69;;;0.51;47.46
6506;BME280;3286;49.858;8.768;2023-02-28T01:09:10;100249.66;;;0.84;46.84
6506;BME280;3286;49.858;8.768;2023-02-28T01:11:37;100245.13;;;0.45;47.53
6506;BME280;3286;49.858;8.768;2023-02-28T01:14:05;100245.06;;;0.24;48.22
6506;BME280;3286;49.858;8.768;2023-02-28T01:16:32;100240.41;;;0.33;47.58
6506;BME280;3286;49.858;8.768;2023-02-28T01:18:59;100239.56;;;0.77;46.93
6506;BME280;3286;49.858;8.768;2023-02-28T01:21:27;100243.16;;;0.52;47.44
6506;BME280;3286;49.858;8.768;2023-02-28T01:23:56;100239.09;;;0.45;47.81
6506;BME280;3286;49.858;8.768;2023-02-28T01:26:23;100237.94;;;0.30;48.24
6506;BME280;3286;49.858;8.768;2023-02-28T01:28:50;100236.44;;;0.46;47.72
6506;BME280;3286;49.858;8.768;2023-02-28T01:31:18;100235.28;;;0.53;47.80
6506;BME280;3286;49.858;8.768;2023-02-28T01:33:46;100237.28;;;0.24;48.43
6506;BME280;3286;49.858;8.768;2023-02-28T01:36:15;100237.88;;;0.31;47.84
6506;BME280;3286;49.858;8.768;2023-02-28T01:38:44;100234.31;;;0.10;49.02
6506;BME280;3286;49.858;8.768;2023-02-28T01:41:16;100230.94;;;0.08;48.77
6506;BME280;3286;49.858;8.768;2023-02-28T01:44:05;100232.53;;;0.12;48.61
6506;BME280;3286;49.858;8.768;2023-02-28T01:46:34;100227.06;;;0.42;47.99
6506;BME280;3286;49.858;8.768;2023-02-28T01:49:05;100224.97;;;0.06;48.31
6506;BME280;3286;49.858;8.768;2023-02-28T01:51:37;100227.44;;;0.09;48.88
6506;BME280;3286;49.858;8.768;2023-02-28T01:54:10;100233.97;;;0.19;48.38
6506;BME280;3286;49.858;8.768;2023-02-28T01:56:41;100219.03;;;-0.22;48.80
6506;BME280;3286;49.858;8.768;2023-02-28T01:59:08;100219.88;;;-0.21;49.08
6506;BME280;3286;49.858;8.768;2023-02-28T02:01:35;100223.38;;;-0.22;49.70
6506;BME280;3286;49.858;8.768;2023-02-28T02:04:03;100216.56;;;-0.25;49.01
6506;BME280;3286;49.858;8.768;2023-02-28T02:06:34;100212.53;;;0.58;47.67
6506;BME280;3286;49.858;8.768;2023-02-28T02:09:02;100210.78;;;-0.09;49.14
6506;BME280;3286;49.858;8.768;2023-02-28T02:11:30;100206.97;;;-0.23;49.22
6506;BME280;3286;49.858;8.768;2023-02-28T02:14:30;100208.28;;;-0.11;49.23
6506;BME280;3286;49.858;8.768;2023-02-28T02:17:09;100199.72;;;-0.15;49.16
6506;BME280;3286;49.858;8.768;2023-02-28T02:20:11;100203.50;;;-0.23;49.97
6506;BME280;3286;49.858;8.768;2023-02-28T02:23:02;100202.50;;;-0.43;50.53
6506;BME280;3286;49.858;8.768;2023-02-28T02:25:39;100195.28;;;-0.35;50.10
6506;BME280;3286;49.858;8.768;2023-02-28T02:31:28;100189.00;;;-0.05;49.00
6506;BME280;3286;49.858;8.768;2023-02-28T02:34:20;100192.72;;;-0.12;48.97
6506;BME280;3286;49.858;8.768;2023-02-28T02:36:52;100202.59;;;0.02;48.42
6506;BME280;3286;49.858;8.768;2023-02-28T02:39:29;100196.00;;;-0.31;50.06
6506;BME280;3286;49.858;8.768;2023-02-28T02:42:00;100194.59;;;-0.16;49.63
6506;BME280;3286;49.858;8.768;2023-02-28T02:44:31;100192.00;;;-0.40;50.06
6506;BME280;3286;49.858;8.768;2023-02-28T02:47:05;100192.44;;;-0.28;49.45
6506;BME280;3286;49.858;8.768;2023-02-28T02:49:36;100192.00;;;-0.16;49.52
6506;BME280;3286;49.858;8.768;2023-02-28T02:52:07;100192.75;;;-0.36;50.02
6506;BME280;3286;49.858;8.768;2023-02-28T02:54:36;100201.94;;;-0.27;49.46
6506;BME280;3286;49.858;8.768;2023-02-28T02:57:07;100196.50;;;-0.21;49.62
6506;BME280;3286;49.858;8.768;2023-02-28T02:59:35;100200.88;;;-0.22;49.09
6506;BME280;3286;49.858;8.768;2023-02-28T03:02:06;100197.56;;;-0.03;49.08
6506;BME280;3286;49.858;8.768;2023-02-28T03:04:43;100203.59;;;-0.25;49.67
6506;BME280;3286;49.858;8.768;2023-02-28T03:07:12;100204.53;;;-0.27;50.00
6506;BME280;3286;49.858;8.768;2023-02-28T03:09:38;100208.13;;;-0.55;50.33
6506;BME280;3286;49.858;8.768;2023-02-28T03:12:07;100207.59;;;-0.65;50.92
6506;BME280;3286;49.858;8.768;2023-02-28T03:14:45;100209.03;;;-0.33;50.16
6506;BME280;3286;49.858;8.768;2023-02-28T03:17:40;100200.34;;;-0.08;50.10
6506;BME280;3286;49.858;8.768;2023-02-28T03:20:17;100203.91;;;-0.34;51.22
6506;BME280;3286;49.858;8.768;2023-02-28T03:23:00;100205.44;;;-0.28;51.51
6506;BME280;3286;49.858;8.768;2023-02-28T03:25:33;100201.81;;;-0.24;51.63
6506;BME280;3286;49.858;8.768;2023-02-28T03:28:08;100209.16;;;-0.12;50.98
6506;BME280;3286;49.858;8.768;2023-02-28T03:30:42;100199.03;;;-0.44;51.21
6506;BME280;3286;49.858;8.768;2023-02-28T03:33:14;100203.38;;;0.04;50.09
6506;BME280;3286;49.858;8.768;2023-02-28T03:35:47;100204.72;;;-0.32;50.77
6506;BME280;3286;49.858;8.768;2023-02-28T03:38:18;100201.94;;;-0.51;50.53
6506;BME280;3286;49.858;8.768;2023-02-28T03:40:49;100203.41;;;-0.44;51.09
6506;BME280;3286;49.858;8.768;2023-02-28T03:43:21;100201.50;;;-0.64;51.72
6506;BME280;3286;49.858;8.768;2023-02-28T03:45:50;100195.72;;;0.01;49.68
6506;BME280;3286;49.858;8.768;2023-02-28T03:48:21;100206.03;;;-0.46;51.96
6506;BME280;3286;49.858;8.768;2023-02-28T03:50:53;100201.81;;;-0.24;50.72
6506;BME280;3286;49.858;8.768;2023-02-28T03:53:24;100206.56;;;-0.36;51.79
6506;BME280;3286;49.858;8.768;2023-02-28T03:55:54;100203.50;;;-0.47;51.30
6506;BME280;3286;49.858;8.768;2023-02-28T03:58:26;100206.22;;;-0.26;50.94
6506;BME280;3286;49.858;8.768;2023-02-28T04:01:00;100206.28;;;-0.28;50.78
6506;BME280;3286;49.858;8.768;2023-02-28T04:03:33;100206.03;;;-0.46;51.49
6506;BME280;3286;49.858;8.768;2023-02-28T04:06:02;100210.16;;;-0.40;51.18
6506;BME280;3286;49.858;8.768;2023-02-28T04:08:29;100209.94;;;-0.34;50.89
6506;BME280;3286;49.858;8.768;2023-02-28T04:10:58;100203.97;;;-0.12;50.88
6506;BME280;3286;49.858;8.768;2023-02-28T04:13:27;100208.88;;;-0.04;49.99
6506;BME280;3286;49.858;8.768;2023-02-28T04:15:53;100208.84;;;-0.52;51.30
6506;BME280;3286;49.858;8.768;2023-02-28T04:18:20;100206.88;;;-0.21;50.74
6506;BME280;3286;49.858;8.768;2023-02-28T04:20:46;100209.28;;;-0.39;51.11
6506;BME280;3286;49.858;8.768;2023-02-28T04:23:14;100205.28;;;-0.24;50.88
6506;BME280;3286;49.858;8.768;2023-02-28T04:25:41;100212.09;;;0.03;50.55
6506;BME280;3286;49.858;8.768;2023-02-28T04:28:07;100209.94;;;-0.34;50.75
6506;BME280;3286;49.858;8.768;2023-02-28T04:30:35;100218.34;;;-0.51;50.85
6506;BME280;3286;49.858;8.768;2023-02-28T04:33:01;100204.22;;;-0.18;50.66
6506;BME280;3286;49.858;8.768;2023-02-28T04:35:28;100206.38;;;-0.07;50.14
6506;BME280;3286;49.858;8.768;2023-02-28T04:37:54;100211.31;;;-0.47;51.18
6506;BME280;3286;49.858;8.768;2023-02-28T04:40:22;100207.00;;;-0.48;51.56
6506;BME280;3286;49.858;8.768;2023-02-28T04:42:49;100206.91;;;-0.45;51.17
6506;BME280;3286;49.858;8.768;2023-02-28T04:45:16;100209.22;;;-0.63;51.32
6506;BME280;3286;49.858;8.768;2023-02-28T04:47:42;100198.63;;;-0.31;50.46
6506;BME280;3286;49.858;8.768;2023-02-28T04:50:09;100201.44;;;-0.37;50.96
6506;BME280;3286;49.858;8.768;2023-02-28T04:52:36;100211.22;;;-0.46;50.57
6506;BME280;3286;49.858;8.768;2023-02-28T04:55:03;100209.75;;;-0.53;50.71
6506;BME280;3286;49.858;8.768;2023-02-28T04:57:32;100210.56;;;-0.76;51.87
6506;BME280;3286;49.858;8.768;2023-02-28T04:59:58;100212.31;;;-0.51;51.01
6506;BME280;3286;49.858;8.768;2023-02-28T05:02:25;100215.97;;;-0.82;51.38
6506;BME280;3286;49.858;8.768;2023-02-28T05:04:51;100220.38;;;-0.59;51.10
6506;BME280;3286;49.858;8.768;2023-02-28T05:07:18;100214.16;;;-0.55;51.14
6506;BME280;3286;49.858;8.768;2023-02-28T05:09:45;100214.72;;;-0.70;50.71
6506;BME280;3286;49.858;8.768;2023-02-28T05:12:11;100221.75;;;-0.74;51.04
6506;BME280;3286;49.858;8.768;2023-02-28T05:14:39;100222.16;;;-0.86;51.50
6506;BME280;3286;49.858;8.768;2023-02-28T05:17:06;100222.72;;;-1.31;52.73
6506;BME280;3286;49.858;8.768;2023-02-28T05:19:32;100212.63;;;-0.86;51.83
6506;BME280;3286;49.858;8.768;2023-02-28T05:21:59;100216.41;;;-0.69;51.06
6506;BME280;3286;49.858;8.768;2023-02-28T05:24:26;100211.69;;;-0.83;51.07
6506;BME280;3286;49.858;8.768;2023-02-28T05:26:53;100213.47;;;-0.85;51.32
6506;BME280;3286;49.858;8.768;2023-02-28T05:29:20;100214.03;;;-0.76;51.29
6506;BME280;3286;49.858;8.768;2023-02-28T05:31:48;100216.28;;;-0.66;51.41
6506;BME280;3286;49.858;8.768;2023-02-28T05:34:15;100213.91;;;-0.98;51.60
6506;BME280;3286;49.858;8.768;2023-02-28T05:36:42;100215.28;;;-0.62;50.77
6506;BME280;3286;49.858;8.768;2023-02-28T05:39:08;100213.72;;;-0.93;51.43
6506;BME280;3286;49.858;8.768;2023-02-28T05:41:39;100221.72;;;-0.99;51.43
6506;BME280;3286;49.858;8.768;2023-02-28T05:44:05;100229.41;;;-0.96;52.04
6506;BME280;3286;49.858;8.768;2023-02-28T05:46:32;100231.41;;;-1.05;52.73
6506;BME280;3286;49.858;8.768;2023-02-28T05:49:00;100229.31;;;-0.93;51.60
6506;BME280;3286;49.858;8.768;2023-02-28T05:51:27;100230.31;;;-0.97;52.22
6506;BME280;3286;49.858;8.768;2023-02-28T05:53:54;100234.34;;;-1.15;52.18
6506;BME280;3286;49.858;8.768;2023-02-28T05:56:21;100228.81;;;-0.78;51.54
6506;BME280;3286;49.858;8.768;2023-02-28T05:58:48;100233.28;;;-0.83;51.73
6506;BME280;3286;49.858;8.768;2023-02-28T06:01:23;100237.19;;;-1.23;52.82
6506;BME280;3286;49.858;8.768;2023-02-28T06:03:50;100235.16;;;-1.13;51.84
6506;BME280;3286;49.858;8.768;2023-02-28T06:06:18;100236.50;;;-0.76;51.48
6506;BME280;3286;49.858;8.768;2023-02-28T06:08:45;100239.00;;;-0.73;52.25
6506;BME280;3286;49.858;8.768;2023-02-28T06:11:12;100238.41;;;-0.31;51.00
6506;BME280;3286;49.858;8.768;2023-02-28T06:13:39;100242.69;;;-0.53;51.16
6506;BME280;3286;49.858;8.768;2023-02-28T06:16:06;100238.38;;;-0.80;51.70
6506;BME280;3286;49.858;8.768;2023-02-28T06:18:33;100246.34;;;-0.86;51.86
6506;BME280;3286;49.858;8.768;2023-02-28T06:20:59;100246.06;;;-0.77;51.37
6506;BME280;3286;49.858;8.768;2023-02-28T06:23:27;100255.59;;;-1.04;53.03
6506;BME280;3286;49.858;8.768;2023-02-28T06:25:54;100251.78;;;-1.19;52.63
6506;BME280;3286;49.858;8.768;2023-02-28T06:28:23;100255.00;;;-0.85;51.97
6506;BME280;3286;49.858;8.768;2023-02-28T06:30:50;100243.84;;;-0.89;51.95
6506;BME280;3286;49.858;8.768;2023-02-28T06:33:16;100248.69;;;-0.78;51.41
6506;BME280;3286;49.858;8.768;2023-02-28T06:35:43;100259.31;;;-0.86;52.19
6506;BME280;3286;49.858;8.768;2023-02-28T06:38:10;100265.31;;;-0.84;52.02
6506;BME280;3286;49.858;8.768;2023-02-28T06:40:38;100263.44;;;-0.79;51.62
6506;BME280;3286;49.858;8.768;2023-02-28T06:43:05;100257.59;;;-0.85;52.60
6506;BME280;3286;49.858;8.768;2023-02-28T06:45:32;100259.28;;;-0.59;51.78
6506;BME280;3286;49.858;8.768;2023-02-28T06:47:58;100261.19;;;-0.39;51.52
6506;BME280;3286;49.858;8.768;2023-02-28T06:50:25;100265.00;;;-0.24;51.80
6506;BME280;3286;49.858;8.768;2023-02-28T06:52:54;100268.50;;;-0.25;51.82
6506;BME280;3286;49.858;8.768;2023-02-28T06:55:21;100273.13;;;-0.09;51.02
6506;BME280;3286;49.858;8.768;2023-02-28T06:57:49;100268.50;;;0.23;50.11
6506;BME280;3286;49.858;8.768;2023-02-28T07:00:17;100274.13;;;0.34;50.51
6506;BME280;3286;49.858;8.768;2023-02-28T07:02:43;100274.56;;;-0.01;51.51
6506;BME280;3286;49.858;8.768;2023-02-28T07:05:10;100274.56;;;0.23;50.64
6506;BME280;3286;49.858;8.768;2023-02-28T07:07:37;100272.13;;;0.42;49.68
6506;BME280;3286;49.858;8.768;2023-02-28T07:10:06;100270.22;;;0.68;49.15
6506;BME280;3286;49.858;8.768;2023-02-28T07:12:33;100270.84;;;0.53;49.00
6506;BME280;3286;49.858;8.768;2023-02-28T07:15:01;100274.84;;;0.84;48.92
6506;BME280;3286;49.858;8.768;2023-02-28T07:17:28;100274.31;;;1.19;47.71
6506;BME280;3286;49.858;8.768;2023-02-28T07:19:55;100268.84;;;0.82;47.89
6506;BME280;3286;49.858;8.768;2023-02-28T07:22:21;100275.31;;;0.71;48.27
6506;BME280;3286;49.858;8.768;2023-02-28T07:24:48;100274.94;;;1.03;47.70
6506;BME280;3286;49.858;8.768;2023-02-28T07:27:15;100279.94;;;1.08;47.42
6506;BME280;3286;49.858;8.768;2023-02-28T07:29:48;100276.50;;;1.28;47.34
6506;BME280;3286;49.858;8.768;2023-02-28T07:32:16;100282.66;;;1.05;46.80
6506;BME280;3286;49.858;8.768;2023-02-28T07:34:44;100275.66;;;1.48;46.49
6506;BME280;3286;49.858;8.768;2023-02-28T07:37:10;100282.34;;;1.74;46.02
6506;BME280;3286;49.858;8.768;2023-02-28T07:39:37;100281.78;;;1.68;45.69
6506;BME280;3286;49.858;8.768;2023-02-28T07:42:04;100280.19;;;1.84;45.96
6506;BME280;3286;49.858;8.768;2023-02-28T07:44:31;100277.66;;;1.83;45.36
6506;BME280;3286;49.858;8.768;2023-02-28T07:46:58;100275.84;;;1.85;45.62
6506;BME280;3286;49.858;8.768;2023-02-28T07:49:26;100273.13;;;2.07;45.92
6506;BME280;3286;49.858;8.768;2023-02-28T07:51:52;100271.84;;;2.16;45.23
6506;BME280;3286;49.858;8.768;2023-02-28T07:54:19;100280.50;;;1.97;46.84
6506;BME280;3286;49.858;8.768;2023-02-28T07:56:45;100281.97;;;2.03;46.90
6506;BME280;3286;49.858;8.768;2023-02-28T07:59:12;100283.69;;;2.42;45.57
6506;BME280;3286;49.858;8.768;2023-02-28T08:01:38;100272.31;;;2.63;44.86
6506;BME280;3286;49.858;8.768;2023-02-28T08:04:05;100272.53;;;2.95;43.67
6506;BME280;3286;49.858;8.768;2023-02-28T08:06:33;100281.56;;;2.70;44.16
6506;BME280;3286;49.858;8.768;2023-02-28T08:09:00;100284.56;;;2.03;44.88
6506;BME280;3286;49.858;8.768;2023-02-28T08:11:27;100284.88;;;2.16;44.56
6506;BME280;3286;49.858;8.768;2023-02-28T08:13:54;100282.34;;;2.14;44.12
6506;BME280;3286;49.858;8.768;2023-02-28T08:16:21;100281.66;;;1.71;44.91
6506;BME280;3286;49.858;8.768;2023-02-28T08:18:48;100281.94;;;2.24;44.45
6506;BME280;3286;49.858;8.768;2023-02-28T08:21:15;100283.81;;;2.01;45.10
6506;BME280;3286;49.858;8.768;2023-02-28T08:23:43;100289.66;;;1.66;44.50
6506;BME280;3286;49.858;8.768;2023-02-28T08:26:12;100279.81;;;2.13;44.50
6506;BME280;3286;49.858;8.768;2023-02-28T08:28:38;100284.31;;;1.69;44.41
6506;BME280;3286;49.858;8.768;2023-02-28T08:31:09;100286.50;;;2.19;44.01
6506;BME280;3286;49.858;8.768;2023-02-28T08:33:37;100277.63;;;1.64;44.07
6506;BME280;3286;49.858;8.768;2023-02-28T08:36:05;100281.97;;;1.42;45.52
6506;BME280;3286;49.858;8.768;2023-02-28T08:38:32;100283.53;;;1.88;43.86
6506;BME280;3286;49.858;8.768;2023-02-28T08:41:00;100271.41;;;2.44;44.50
6506;BME280;3286;49.858;8.768;2023-02-28T08:43:28;100266.34;;;2.03;43.87
6506;BME280;3286;49.858;8.768;2023-02-28T08:45:55;100268.84;;;2.25;43.59
6506;BME280;3286;49.858;8.768;2023-02-28T08:48:23;100261.31;;;2.93;43.92
6506;BME280;3286;49.858;8.768;2023-02-28T08:50:57;100269.31;;;3.25;41.83
6506;BME280;3286;49.858;8.768;2023-02-28T08:53:24;100272.56;;;2.39;43.38
6506;BME280;3286;49.858;8.768;2023-02-28T08:55:57;100276.63;;;1.87;43.92
6506;BME280;3286;49.858;8.768;2023-02-28T08:58:26;100272.34;;;2.24;43.68
6506;BME280;3286;49.858;8.768;2023-02-28T09:00:53;100273.38;;;2.39;44.21
6506;BME280;3286;49.858;8.768;2023-02-28T09:03:20;100273.47;;;2.19;43.72
6506;BME280;3286;49.858;8.768;2023-02-28T09:05:57;100275.47;;;2.33;43.78
6506;BME280;3286;49.858;8.768;2023-02-28T09:08:26;100283.66;;;1.85;44.48
6506;BME280;3286;49.858;8.768;2023-02-28T09:10:53;100268.44;;;2.52;44.21
6506;BME280;3286;49.858;8.768;2023-02-28T09:13:22;100266.97;;;2.66;42.05
6506;BME280;3286;49.858;8.768;2023-02-28T09:15:50;100270.78;;;2.39;42.47
6506;BME280;3286;49.858;8.768;2023-02-28T09:18:17;100265.84;;;3.24;41.31
6506;BME280;3286;49.858;8.768;2023-02-28T09:20:43;100259.19;;;3.36;41.20
6506;BME280;3286;49.858;8.768;2023-02-28T09:23:12;100254.03;;;4.02;41.02
6506;BME280;3286;49.858;8.768;2023-02-28T09:25:45;100261.25;;;2.94;41.49
6506;BME280;3286;49.858;8.768;2023-02-28T09:28:11;100257.75;;;3.30;40.35
6506;BME280;3286;49.858;8.768;2023-02-28T09:30:39;100257.03;;;3.27;41.24
6506;BME280;3286;49.858;8.768;2023-02-28T09:33:07;100262.72;;;3.35;39.88
6506;BME280;3286;49.858;8.768;2023-02-28T09:35:34;100263.44;;;3.72;40.63
6506;BME280;3286;49.858;8.768;2023-02-28T09:38:02;100247.50;;;3.26;39.96
6506;BME280;3286;49.858;8.768;2023-02-28T09:40:29;100255.19;;;3.11;40.35
6506;BME280;3286;49.858;8.768;2023-02-28T09:42:58;100261.25;;;3.12;40.88
6506;BME280;3286;49.858;8.768;2023-02-28T09:45:30;100257.56;;;3.16;40.31
6506;BME280;3286;49.858;8.768;2023-02-28T09:48:01;100254.66;;;3.04;41.03
6506;BME280;3286;49.858;8.768;2023-02-28T09:50:35;100259.56;;;3.46;40.32
6506;BME280;3286;49.858;8.768;2023-02-28T09:53:13;100259.78;;;2.52;41.14
6506;BME280;3286;49.858;8.768;2023-02-28T09:55:45;100265.03;;;1.73;41.20
6506;BME280;3286;49.858;8.768;2023-02-28T09:58:20;100258.56;;;2.96;40.75
6506;BME280;3286;49.858;8.768;2023-02-28T10:00:56;100257.41;;;2.09;40.85
6506;BME280;3286;49.858;8.768;2023-02-28T10:03:30;100251.28;;;3.38;38.90
6506;BME280;3286;49.858;8.768;2023-02-28T10:06:06;100259.06;;;3.73;38.60
6506;BME280;3286;49.858;8.768;2023-02-28T10:08:37;100260.09;;;3.00;39.50
6506;BME280;3286;49.858;8.768;2023-02-28T10:11:12;100268.47;;;3.07;39.49
6506;BME280;3286;49.858;8.768;2023-02-28T10:13:48;100266.34;;;3.32;38.84
6506;BME280;3286;49.858;8.768;2023-02-28T10:16:22;100257.75;;;2.20;39.61
6506;BME280;3286;49.858;8.768;2023-02-28T10:18:53;100263.53;;;2.27;40.91
6506;BME280;3286;49.858;8.768;2023-02-28T10:21:26;100262.91;;;2.78;38.93
6506;BME280;3286;49.858;8.768;2023-02-28T10:24:02;100258.75;;;2.73;38.96
6506;BME280;3286;49.858;8.768;2023-02-28T10:26:31;100260.72;;;2.51;38.52
6506;BME280;3286;49.858;8.768;2023-02-28T10:28:58;100256.44;;;2.67;37.63
6506;BME280;3286;49.858;8.768;2023-02-28T10:31:24;100253.66;;;3.07;39.11
6506;BME280;3286;49.858;8.768;2023-02-28T10:33:51;100257.50;;;3.53;38.27
6506;BME280;3286;49.858;8.768;2023-02-28T10:36:20;100257.28;;;3.73;37.16
6506;BME280;3286;49.858;8.768;2023-02-28T10:38:47;100264.88;;;3.09;37.71
6506;BME280;3286;49.858;8.768;2023-02-28T10:41:17;100264.41;;;2.64;38.17
6506;BME280;3286;49.858;8.768;2023-02-28T10:43:53;100257.97;;;3.26;38.27
6506;BME280;3286;49.858;8.768;2023-02-28T10:46:39;100253.78;;;3.90;36.41
6506;BME280;3286;49.858;8.768;2023-02-28T10:49:13;100255.47;;;2.70;37.80
6506;BME280;3286;49.858;8.768;2023-02-28T10:51:41;100252.94;;;3.21;37.59
6506;BME280;3286;49.858;8.768;2023-02-28T10:54:16;100244.13;;;4.41;35.44
6506;BME280;3286;49.858;8.768;2023-02-28T10:56:42;100251.78;;;3.44;36.82
6506;BME280;3286;49.858;8.768;2023-02-28T10:59:27;100252.91;;;3.74;36.83
6506;BME280;3286;49.858;8.768;2023-02-28T11:01:54;100255.47;;;3.58;36.48
6506;BME280;3286;49.858;8.768;2023-02-28T11:04:33;100249.16;;;3.44;37.33
6506;BME280;3286;49.858;8.768;2023-02-28T11:07:04;100242.50;;;4.06;35.99
6506;BME280;3286;49.858;8.768;2023-02-28T11:09:33;100245.25;;;3.87;36.07
6506;BME280;3286;49.858;8.768;2023-02-28T11:12:02;100241.91;;;4.01;36.78
6506;BME280;3286;49.858;8.768;2023-02-28T11:14:34;100251.38;;;4.52;36.80
6506;BME280;3286;49.858;8.768;2023-02-28T11:17:14;100241.28;;;4.92;35.10
6506;BME280;3286;49.858;8.768;2023-02-28T11:19:46;100235.31;;;5.04;36.63
6506;BME280;3286;49.858;8.768;2023-02-28T11:22:19;100230.66;;;5.55;33.72
6506;BME280;3286;49.858;8.768;2023-02-28T11:24:49;100234.41;;;5.94;34.34
6506;BME280;3286;49.858;8.768;2023-02-28T11:27:43;100229.38;;;5.17;33.63
6506;BME280;3286;49.858;8.768;2023-02-28T11:30:28;100228.25;;;4.44;34.90
6506;BME280;3286;49.858;8.768;2023-02-28T11:32:55;100231.03;;;5.03;35.09
6506;BME280;3286;49.858;8.768;2023-02-28T11:35:25;100227.44;;;5.49;33.95
6506;BME280;3286;49.858;8.768;2023-02-28T11:37:53;100227.84;;;5.72;34.21
6506;BME280;3286;49.858;8.768;2023-02-28T11:40:24;100215.75;;;5.55;34.23
6506;BME280;3286;49.858;8.768;2023-02-28T11:43:00;100225.31;;;5.85;34.20
6506;BME280;3286;49.858;8.768;2023-02-28T11:45:47;100224.16;;;5.31;35.43
6506;BME280;3286;49.858;8.768;2023-02-28T11:48:22;100227.28;;;5.53;34.72
6506;BME280;3286;49.858;8.768;2023-02-28T11:50:57;100226.69;;;5.47;34.12
6506;BME280;3286;49.858;8.768;2023-02-28T11:53:43;100224.88;;;4.88;34.61
6506;BME280;3286;49.858;8.768;2023-02-28T11:56:20;100224.53;;;4.64;35.45
6506;BME280;3286;49.858;8.768;2023-02-28T11:58:57;100221.97;;;4.62;35.93
6506;BME280;3286;49.858;8.768;2023-02-28T12:01:36;100225.09;;;5.30;34.40
6506;BME280;3286;49.858;8.768;2023-02-28T12:04:15;100231.09;;;4.55;35.66
6506;BME280;3286;49.858;8.768;2023-02-28T12:06:46;100223.38;;;5.15;35.03
6506;BME280;3286;49.858;8.768;2023-02-28T12:09:31;100220.69;;;5.31;35.18
6506;BME280;3286;49.858;8.768;2023-02-28T12:12:06;100226.78;;;5.31;33.10
6506;BME280;3286;49.858;8.768;2023-02-28T12:14:49;100214.53;;;5.75;34.27
6506;BME280;3286;49.858;8.768;2023-02-28T12:17:32;100216.94;;;6.49;33.25
6506;BME280;3286;49.858;8.768;2023-02-28T12:20:12;100224.56;;;5.54;33.62
6506;BME280;3286;49.858;8.768;2023-02-28T12:22:48;100217.50;;;5.40;34.28
6506;BME280;3286;49.858;8.768;2023-02-28T12:25:38;100223.63;;;5.55;35.46
6506;BME280;3286;49.858;8.768;2023-02-28T12:28:09;100224.53;;;5.40;34.80
6506;BME280;3286;49.858;8.768;2023-02-28T12:30:41;100226.06;;;4.36;34.92
6506;BME280;3286;49.858;8.768;2023-02-28T12:33:14;100225.22;;;4.35;36.49
6506;BME280;3286;49.858;8.768;2023-02-28T12:35:48;100222.03;;;4.93;35.62
6506;BME280;3286;49.858;8.768;2023-02-28T12:38:20;100218.00;;;5.47;34.72
6506;BME280;3286;49.858;8.768;2023-02-28T12:40:53;100224.31;;;5.14;34.18
6506;BME280;3286;49.858;8.768;2023-02-28T12:43:41;100221.13;;;5.08;34.99
6506;BME280;3286;49.858;8.768;2023-02-28T12:46:10;100214.59;;;4.85;35.28
6506;BME280;3286;49.858;8.768;2023-02-28T12:48:41;100215.94;;;4.92;35.17
6506;BME280;3286;49.858;8.768;2023-02-28T12:51:09;100212.19;;;4.66;34.83
6506;BME280;3286;49.858;8.768;2023-02-28T12:53:49;100212.47;;;4.92;34.94
6506;BME280;3286;49.858;8.768;2023-02-28T12:56:27;100196.44;;;5.71;34.05
6506;BME280;3286;49.858;8.768;2023-02-28T12:59:00;100202.00;;;5.95;34.22
6506;BME280;3286;49.858;8.768;2023-02-28T13:01:40;100197.84;;;5.47;33.35
6506;BME280;3286;49.858;8.768;2023-02-28T13:04:51;100197.69;;;5.79;34.01
6506;BME280;3286;49.858;8.768;2023-02-28T13:07:49;100195.72;;;5.40;33.36
6506;BME280;3286;49.858;8.768;2023-02-28T13:10:21;100194.72;;;4.97;35.31
6506;BME280;3286;49.858;8.768;2023-02-28T13:12:50;100197.50;;;5.54;34.06
6506;BME280;3286;49.858;8.768;2023-02-28T13:15:20;100201.16;;;4.91;35.42
6506;BME280;3286;49.858;8.768;2023-02-28T13:17:51;100204.53;;;5.08;34.39
6506;BME280;3286;49.858;8.768;2023-02-28T13:20:20;100198.78;;;4.87;34.90
6506;BME280;3286;49.858;8.768;2023-02-28T13:22:49;100198.59;;;4.59;35.41
6506;BME280;3286;49.858;8.768;2023-02-28T13:25:51;100206.47;;;4.43;35.82
6506;BME280;3286;49.858;8.768;2023-02-28T13:31:26;100184.81;;;6.18;33.40
6506;BME280;3286;49.858;8.768;2023-02-28T13:34:13;100203.84;;;5.49;34.21
6506;BME280;3286;49.858;8.768;2023-02-28T13:36:40;100195.53;;;5.43;34.53
6506;BME280;3286;49.858;8.768;2023-02-28T13:42:24;100187.75;;;5.99;33.66
6506;BME280;3286;49.858;8.768;2023-02-28T13:45:22;100184.88;;;6.59;33.41